CheckWX is a tool to help pilots better visualize weather data.  It is not intended as a substitute for an official pre-flight weather briefing.

07:22:16 UTC

OJAI TAF
Queen Alia International Airport
Amman, Jordan
TAF OJAI 110448Z 1106/1212 30010KT 7000 FEW030

Jul-11@
06:00 UTC

Jul-11 @ 06:00 UTC

Jul-12@
12:00 UTC

Jul-12 @ 12:00 UTC

TAF OJAI 110448Z 1106/1212 30010KT 7000 FEW030
Wind
  • 300° at 10 KTS
Cloud Levels
  • Few at 3,000' AGL